createdAt,value
2023-03-29T00:01:10.127Z,99411.44
2023-03-29T00:03:39.514Z,99418.25
2023-03-29T00:06:08.532Z,99417.44
2023-03-29T00:08:40.025Z,99416.63
2023-03-29T00:11:08.786Z,99417.78
2023-03-29T00:13:38.187Z,99426.47
2023-03-29T00:16:07.268Z,99426.47
2023-03-29T00:18:36.122Z,99423.22
2023-03-29T00:21:05.316Z,99424.22
2023-03-29T00:23:33.947Z,99414.63
2023-03-29T00:26:07.180Z,99414.00
2023-03-29T00:28:36.486Z,99406.34
2023-03-29T00:31:08.328Z,99404.84
2023-03-29T00:33:37.101Z,99405.56
2023-03-29T00:36:07.339Z,99401.16
2023-03-29T00:38:36.797Z,99396.66
2023-03-29T00:41:07.796Z,99390.38
2023-03-29T00:43:56.966Z,99388.09
2023-03-29T00:46:27.175Z,99384.56
2023-03-29T00:48:58.126Z,99373.53
2023-03-29T00:51:29.327Z,99375.34
2023-03-29T00:54:00.810Z,99380.00
2023-03-29T00:56:34.766Z,99379.25
2023-03-29T00:59:05.749Z,99379.63
2023-03-29T01:01:38.110Z,99382.94
2023-03-29T01:04:09.464Z,99387.03
2023-03-29T01:06:39.265Z,99384.09
2023-03-29T01:09:10.306Z,99371.63
2023-03-29T01:11:42.813Z,99371.16
2023-03-29T01:14:15.256Z,99357.88
2023-03-29T01:16:43.891Z,99347.13
2023-03-29T01:19:15.379Z,99339.97
2023-03-29T01:21:46.000Z,99344.31
2023-03-29T01:24:34.333Z,99327.75
2023-03-29T01:27:11.310Z,99326.13
2023-03-29T01:29:45.541Z,99321.72
2023-03-29T01:32:17.104Z,99316.72
2023-03-29T01:34:50.269Z,99318.97
2023-03-29T01:37:24.564Z,99319.31
2023-03-29T01:39:53.725Z,99321.28
2023-03-29T01:42:33.247Z,99324.69
2023-03-29T01:45:09.760Z,99319.66
2023-03-29T01:47:46.476Z,99318.50
2023-03-29T01:50:18.369Z,99317.44
2023-03-29T01:52:51.319Z,99311.88
2023-03-29T01:55:23.595Z,99306.78
2023-03-29T01:57:53.976Z,99294.59
2023-03-29T02:00:27.442Z,99293.28
2023-03-29T02:03:00.085Z,99291.31
2023-03-29T02:05:30.617Z,99280.06
2023-03-29T02:08:00.583Z,99273.09
2023-03-29T02:10:29.493Z,99259.84
2023-03-29T02:12:58.496Z,99257.53
2023-03-29T02:15:28.735Z,99256.97
2023-03-29T02:17:57.789Z,99256.34
2023-03-29T02:20:29.146Z,99255.91
2023-03-29T02:23:03.191Z,99250.97
2023-03-29T02:25:32.391Z,99260.31
2023-03-29T02:28:01.794Z,99249.13
2023-03-29T02:30:34.535Z,99252.66
2023-03-29T02:33:06.957Z,99251.97
2023-03-29T02:35:39.197Z,99251.38
2023-03-29T02:38:10.499Z,99251.72
2023-03-29T02:40:40.127Z,99246.69
2023-03-29T02:43:09.200Z,99242.13
2023-03-29T02:45:40.496Z,99244.91
2023-03-29T02:48:11.679Z,99241.84
2023-03-29T02:50:41.615Z,99235.66
2023-03-29T02:53:14.149Z,99234.16
2023-03-29T02:55:42.971Z,99215.97
2023-03-29T02:58:13.397Z,99225.38
2023-03-29T03:00:45.718Z,99215.88
2023-03-29T03:03:15.546Z,99217.66
2023-03-29T03:05:44.452Z,99208.00
2023-03-29T03:08:13.968Z,99209.59
2023-03-29T03:10:42.698Z,99189.41
2023-03-29T03:13:11.328Z,99192.13
2023-03-29T03:15:42.596Z,99188.19
2023-03-29T03:18:12.688Z,99186.22
2023-03-29T03:20:41.365Z,99178.84
2023-03-29T03:23:10.618Z,99196.59
2023-03-29T03:25:39.228Z,99197.44
2023-03-29T03:28:07.948Z,99194.47
2023-03-29T03:30:36.539Z,99207.28
2023-03-29T03:33:05.140Z,99194.28
2023-03-29T03:35:35.629Z,99201.38
2023-03-29T03:38:04.273Z,99193.13
2023-03-29T03:40:33.288Z,99200.56
2023-03-29T03:43:01.978Z,99196.81
2023-03-29T03:45:31.275Z,99189.38
2023-03-29T03:47:59.918Z,99189.31
2023-03-29T03:50:28.622Z,99190.22
2023-03-29T03:52:58.601Z,99182.94
2023-03-29T03:55:29.944Z,99185.00
2023-03-29T03:57:58.624Z,99202.44
2023-03-29T04:00:27.398Z,99193.72
2023-03-29T04:02:56.290Z,99192.09
2023-03-29T04:05:25.364Z,99199.25
2023-03-29T04:07:54.264Z,99203.03
2023-03-29T04:10:24.550Z,99200.78
2023-03-29T04:12:53.185Z,99203.75
2023-03-29T04:15:22.063Z,99201.84
2023-03-29T04:17:50.822Z,99200.88
2023-03-29T04:20:19.669Z,99191.09
2023-03-29T04:22:48.464Z,99197.31
2023-03-29T04:25:17.373Z,99201.50
2023-03-29T04:27:47.358Z,99201.84
2023-03-29T04:30:16.937Z,99201.34
2023-03-29T04:32:45.571Z,99194.53
2023-03-29T04:35:14.401Z,99193.38
2023-03-29T04:37:43.183Z,99198.44
2023-03-29T04:40:14.305Z,99208.06
2023-03-29T04:42:44.282Z,99200.91
2023-03-29T04:45:14.895Z,99210.81
2023-03-29T04:47:43.610Z,99200.53
2023-03-29T04:50:12.942Z,99202.94
2023-03-29T04:52:42.084Z,99208.50
2023-03-29T04:55:12.082Z,99193.91
2023-03-29T04:57:41.288Z,99196.13
2023-03-29T05:00:15.135Z,99187.34
2023-03-29T05:02:46.122Z,99196.22
2023-03-29T05:05:15.267Z,99192.56
2023-03-29T05:07:44.336Z,99193.53
2023-03-29T05:10:13.598Z,99200.78
2023-03-29T05:12:42.204Z,99191.81
2023-03-29T05:15:11.682Z,99193.06
2023-03-29T05:17:40.758Z,99200.69
2023-03-29T05:20:13.003Z,99195.22
2023-03-29T05:22:41.679Z,99195.31
2023-03-29T05:25:13.246Z,99198.44
2023-03-29T05:27:42.574Z,99200.03
2023-03-29T05:30:12.648Z,99201.84
2023-03-29T05:32:41.665Z,99204.28
2023-03-29T05:35:11.932Z,99202.09
2023-03-29T05:37:40.562Z,99199.88
2023-03-29T05:40:10.522Z,99199.25
2023-03-29T05:42:39.229Z,99198.09
2023-03-29T05:45:09.193Z,99211.09
2023-03-29T05:47:37.925Z,99204.72
2023-03-29T05:50:09.638Z,99204.28
2023-03-29T05:52:41.100Z,99202.13
2023-03-29T05:55:10.707Z,99205.16
2023-03-29T05:57:39.613Z,99200.59
2023-03-29T06:00:16.878Z,99208.66
2023-03-29T06:02:45.694Z,99194.28
2023-03-29T06:05:14.918Z,99198.78
2023-03-29T06:07:45.068Z,99203.63
2023-03-29T06:10:14.097Z,99204.97
2023-03-29T06:12:42.942Z,99206.31
2023-03-29T06:15:13.419Z,99202.88
2023-03-29T06:17:42.166Z,99195.72
2023-03-29T06:20:11.869Z,99208.78
2023-03-29T06:22:41.249Z,99199.63
2023-03-29T06:25:12.256Z,99201.66
2023-03-29T06:27:40.850Z,99204.09
2023-03-29T06:30:10.233Z,99199.88
2023-03-29T06:32:38.906Z,99196.53
2023-03-29T06:35:08.552Z,99193.22
2023-03-29T06:37:37.353Z,99208.25
2023-03-29T06:40:09.330Z,99210.50
2023-03-29T06:42:40.522Z,99211.09
2023-03-29T06:45:10.355Z,99216.38
2023-03-29T06:47:38.981Z,99220.53
2023-03-29T06:50:08.682Z,99231.13
2023-03-29T06:52:42.504Z,99222.34
2023-03-29T06:55:12.028Z,99224.28
2023-03-29T06:57:42.547Z,99229.38
2023-03-29T07:00:19.072Z,99229.75
2023-03-29T07:02:48.159Z,99225.44
2023-03-29T07:05:17.322Z,99231.38
2023-03-29T07:07:56.835Z,99239.63
2023-03-29T07:10:28.095Z,99240.13
2023-03-29T07:12:58.127Z,99244.75
2023-03-29T07:15:27.560Z,99244.00
2023-03-29T07:17:57.523Z,99244.06
2023-03-29T07:20:26.997Z,99246.16
2023-03-29T07:22:56.088Z,99245.00
2023-03-29T07:25:27.454Z,99240.25
2023-03-29T07:27:56.512Z,99236.88
2023-03-29T07:30:31.678Z,99235.09
2023-03-29T07:33:01.145Z,99244.16
2023-03-29T07:35:30.854Z,99243.56
2023-03-29T07:37:59.735Z,99241.41
2023-03-29T07:40:28.482Z,99242.06
2023-03-29T07:42:58.825Z,99241.47
2023-03-29T07:45:29.930Z,99248.91
2023-03-29T07:48:02.104Z,99259.41
2023-03-29T07:50:32.594Z,99255.84
2023-03-29T07:53:02.958Z,99258.06
2023-03-29T07:55:31.961Z,99260.88
2023-03-29T07:58:01.549Z,99266.16
2023-03-29T08:00:32.979Z,99269.19
2023-03-29T08:03:03.762Z,99270.22
2023-03-29T08:05:40.739Z,99265.19
2023-03-29T08:08:10.899Z,99264.00
2023-03-29T08:10:39.737Z,99258.41
2023-03-29T08:13:09.797Z,99263.66
2023-03-29T08:15:41.981Z,99256.00
2023-03-29T08:18:10.684Z,99260.03
2023-03-29T08:20:39.390Z,99255.25
2023-03-29T08:23:08.204Z,99249.84
2023-03-29T08:25:37.282Z,99265.75
2023-03-29T08:28:05.934Z,99261.34
2023-03-29T08:30:34.644Z,99257.31
2023-03-29T08:33:04.757Z,99260.13
2023-03-29T08:35:33.472Z,99253.94
2023-03-29T08:38:02.211Z,99253.13
2023-03-29T08:40:31.696Z,99252.13
2023-03-29T08:43:22.916Z,99251.13
2023-03-29T08:46:02.673Z,99262.56
2023-03-29T08:48:35.051Z,99256.75
2023-03-29T08:51:08.644Z,99259.78
2023-03-29T08:53:44.111Z,99248.69
2023-03-29T08:56:14.736Z,99249.72
2023-03-29T08:58:43.541Z,99248.31
2023-03-29T09:01:12.253Z,99242.47
2023-03-29T09:03:46.187Z,99245.88
2023-03-29T09:06:15.616Z,99244.09
2023-03-29T09:08:46.864Z,99238.44
2023-03-29T09:11:28.457Z,99240.41
2023-03-29T09:14:03.635Z,99239.00
2023-03-29T09:16:37.966Z,99231.38
2023-03-29T09:19:17.774Z,99236.38
2023-03-29T09:21:51.575Z,99241.81
2023-03-29T09:24:38.770Z,99241.81
2023-03-29T09:27:10.543Z,99237.91
2023-03-29T09:29:51.293Z,99232.88
2023-03-29T09:32:23.410Z,99231.25
2023-03-29T09:34:59.441Z,99236.22
2023-03-29T09:37:32.718Z,99224.94
2023-03-29T09:40:03.212Z,99230.53
2023-03-29T09:42:33.775Z,99219.25
2023-03-29T09:45:08.474Z,99215.19
2023-03-29T09:47:40.712Z,99207.69
2023-03-29T09:50:27.739Z,99208.66
2023-03-29T09:52:59.617Z,99203.09
2023-03-29T09:55:31.047Z,99204.72
2023-03-29T09:58:02.439Z,99200.22
2023-03-29T10:00:31.101Z,99192.47
2023-03-29T10:03:00.342Z,99193.59
2023-03-29T10:05:32.497Z,99194.31
2023-03-29T10:08:02.262Z,99197.66
2023-03-29T10:10:32.852Z,99190.50
2023-03-29T10:13:04.328Z,99194.59
2023-03-29T10:15:33.247Z,99196.34
2023-03-29T10:18:04.197Z,99196.41
2023-03-29T10:20:36.463Z,99197.44
2023-03-29T10:23:08.065Z,99186.38
2023-03-29T10:25:42.155Z,99191.47
2023-03-29T10:28:14.708Z,99197.06
2023-03-29T10:30:43.802Z,99190.28
2023-03-29T10:33:17.519Z,99186.47
2023-03-29T10:35:47.990Z,99192.66
2023-03-29T10:38:19.183Z,99186.47
2023-03-29T10:40:48.926Z,99179.06
2023-03-29T10:43:22.825Z,99173.50
2023-03-29T10:45:53.751Z,99177.78
2023-03-29T10:48:26.648Z,99172.19
2023-03-29T10:50:59.890Z,99166.84
2023-03-29T10:53:30.703Z,99167.25
2023-03-29T10:56:12.701Z,99160.06
2023-03-29T10:58:53.103Z,99145.53
2023-03-29T11:01:26.524Z,99143.66
2023-03-29T11:04:04.095Z,99148.09
2023-03-29T11:06:38.402Z,99154.81
2023-03-29T11:09:14.147Z,99145.00
2023-03-29T11:12:04.419Z,99146.19
2023-03-29T11:14:42.579Z,99142.63
2023-03-29T11:17:26.583Z,99132.53
2023-03-29T11:20:04.455Z,99126.97
2023-03-29T11:22:42.362Z,99127.91
2023-03-29T11:25:21.185Z,99123.00
2023-03-29T11:27:55.488Z,99122.91
2023-03-29T11:30:26.889Z,99122.75
2023-03-29T11:32:59.935Z,99115.41
2023-03-29T11:35:37.409Z,99109.16
2023-03-29T11:38:15.257Z,99114.16
2023-03-29T11:40:51.416Z,99108.16
2023-03-29T11:43:21.972Z,99117.25
2023-03-29T11:45:53.411Z,99111.19
2023-03-29T11:48:25.000Z,99099.53
2023-03-29T11:50:57.695Z,99109.19
2023-03-29T11:53:31.126Z,99101.69
2023-03-29T11:56:05.364Z,99096.84
2023-03-29T11:58:38.843Z,99099.00
2023-03-29T12:01:11.327Z,99098.13
2023-03-29T12:03:46.345Z,99104.19
2023-03-29T12:06:18.546Z,99081.78
2023-03-29T12:08:52.055Z,99095.34
2023-03-29T12:11:25.545Z,99079.47
2023-03-29T12:13:57.803Z,99068.53
2023-03-29T12:16:28.896Z,99060.13
2023-03-29T12:18:59.427Z,99065.44
2023-03-29T12:21:30.206Z,99062.41
2023-03-29T12:24:00.275Z,99061.91
2023-03-29T12:26:38.005Z,99068.84
2023-03-29T12:29:16.635Z,99063.72
2023-03-29T12:31:50.288Z,99059.97
2023-03-29T12:34:31.033Z,99058.88
2023-03-29T12:37:07.226Z,99071.38
2023-03-29T12:39:38.004Z,99064.38
2023-03-29T12:42:12.608Z,99065.34
2023-03-29T12:44:43.042Z,99060.03
2023-03-29T12:47:19.361Z,99064.56
2023-03-29T12:49:48.428Z,99064.91
2023-03-29T12:52:26.925Z,99061.44
2023-03-29T12:54:58.425Z,99074.28
2023-03-29T12:57:29.522Z,99081.63
2023-03-29T13:00:11.681Z,99090.53
2023-03-29T13:02:40.608Z,99078.22
2023-03-29T13:05:31.636Z,99095.28
2023-03-29T13:08:00.433Z,99080.44
2023-03-29T13:10:39.074Z,99082.91
2023-03-29T13:13:16.568Z,99077.13
2023-03-29T13:15:46.132Z,99082.97
2023-03-29T13:18:37.612Z,99074.25
2023-03-29T13:21:15.055Z,99080.66
2023-03-29T13:23:50.202Z,99083.19
2023-03-29T13:26:27.999Z,99093.22
2023-03-29T13:29:16.216Z,99093.47
2023-03-29T13:31:48.240Z,99093.00
2023-03-29T13:34:30.957Z,99105.97
2023-03-29T13:37:05.872Z,99096.06
2023-03-29T13:39:36.815Z,99103.88
2023-03-29T13:42:20.062Z,99099.72
2023-03-29T13:44:49.761Z,99099.97
2023-03-29T13:47:38.300Z,99090.69
2023-03-29T13:50:13.731Z,99096.94
2023-03-29T13:52:45.636Z,99102.84
2023-03-29T13:55:19.374Z,99096.41
2023-03-29T13:57:53.134Z,99104.38
2023-03-29T14:00:25.286Z,99098.47
2023-03-29T14:02:56.381Z,99096.56
2023-03-29T14:05:29.660Z,99098.13
2023-03-29T14:07:58.963Z,99096.13
2023-03-29T14:10:30.921Z,99092.81
2023-03-29T14:13:03.993Z,99096.72
2023-03-29T14:15:43.936Z,99085.53
2023-03-29T14:18:13.382Z,99085.47
2023-03-29T14:20:44.628Z,99091.22
2023-03-29T14:23:16.059Z,99090.78
2023-03-29T14:25:45.023Z,99080.81
2023-03-29T14:28:20.948Z,99081.41
2023-03-29T14:30:52.457Z,99069.63
2023-03-29T14:33:28.883Z,99074.16
2023-03-29T14:35:58.640Z,99067.63
2023-03-29T14:38:28.030Z,99063.41
2023-03-29T14:41:00.215Z,99066.97
2023-03-29T14:43:32.087Z,99062.88
2023-03-29T14:46:04.477Z,99057.78
2023-03-29T14:48:34.846Z,99060.41
2023-03-29T14:51:03.731Z,99051.03
2023-03-29T14:53:34.246Z,99050.31
2023-03-29T14:56:03.373Z,99045.97
2023-03-29T14:58:35.709Z,99033.94
2023-03-29T15:01:09.163Z,99030.16
2023-03-29T15:03:44.933Z,99028.91
2023-03-29T15:06:14.235Z,99026.34
2023-03-29T15:08:54.148Z,99035.44
2023-03-29T15:11:31.360Z,99028.44
2023-03-29T15:14:04.947Z,99023.75
2023-03-29T15:16:34.368Z,99016.66
2023-03-29T15:19:03.480Z,99001.81
2023-03-29T15:21:34.458Z,98997.69
2023-03-29T15:24:04.165Z,98996.06
2023-03-29T15:26:34.388Z,98995.28
2023-03-29T15:29:08.543Z,98999.25
2023-03-29T15:31:38.621Z,98991.34
2023-03-29T15:34:09.532Z,98979.00
2023-03-29T15:36:42.176Z,98978.31
2023-03-29T15:39:13.055Z,98972.56
2023-03-29T15:41:42.056Z,98976.78
2023-03-29T15:44:12.406Z,98979.59
2023-03-29T15:46:41.741Z,98970.81
2023-03-29T15:49:12.022Z,98965.44
2023-03-29T15:51:41.362Z,98962.28
2023-03-29T15:54:09.987Z,98962.75
2023-03-29T15:56:44.714Z,98959.88
2023-03-29T15:59:14.797Z,98959.09
2023-03-29T16:01:43.650Z,98953.00
2023-03-29T16:04:14.322Z,98951.50
2023-03-29T16:06:43.785Z,98953.59
2023-03-29T16:09:12.823Z,98954.28
2023-03-29T16:11:42.745Z,98957.16
2023-03-29T16:14:19.005Z,98956.59
2023-03-29T16:16:47.825Z,98950.31
2023-03-29T16:19:16.477Z,98955.56
2023-03-29T16:21:45.341Z,98959.78
2023-03-29T16:24:15.956Z,98962.66
2023-03-29T16:26:44.728Z,98963.38
2023-03-29T16:29:15.980Z,98956.84
2023-03-29T16:31:44.926Z,98957.97
2023-03-29T16:34:14.232Z,98954.75
2023-03-29T16:36:44.046Z,98951.56
2023-03-29T16:39:13.052Z,98945.44
2023-03-29T16:41:42.628Z,98948.59
2023-03-29T16:44:15.730Z,98953.31
2023-03-29T16:46:44.903Z,98947.81
2023-03-29T16:49:18.188Z,98951.72
2023-03-29T16:51:48.128Z,98953.16
2023-03-29T16:54:18.851Z,98939.13
2023-03-29T16:56:47.597Z,98942.06
2023-03-29T16:59:17.674Z,98942.63
2023-03-29T17:01:46.439Z,98937.75
2023-03-29T17:04:15.096Z,98940.38
2023-03-29T17:06:43.741Z,98936.94
2023-03-29T17:09:12.605Z,98929.84
2023-03-29T17:11:41.316Z,98923.31
2023-03-29T17:14:10.041Z,98933.28
2023-03-29T17:16:40.131Z,98934.00
2023-03-29T17:19:08.835Z,98939.47
2023-03-29T17:21:37.507Z,98937.88
2023-03-29T17:24:06.767Z,98938.59
2023-03-29T17:26:35.497Z,98956.09
2023-03-29T17:29:04.174Z,98952.91
2023-03-29T17:31:34.816Z,98955.09
2023-03-29T17:34:04.916Z,98952.06
2023-03-29T17:36:33.760Z,98961.13
2023-03-29T17:39:02.962Z,98954.72
2023-03-29T17:41:31.691Z,98944.44
2023-03-29T17:44:01.092Z,98947.38
2023-03-29T17:46:30.184Z,98929.69
2023-03-29T17:48:59.132Z,98916.78
2023-03-29T17:51:29.177Z,98923.75
2023-03-29T17:53:58.256Z,98921.34
2023-03-29T17:56:27.301Z,98926.59
2023-03-29T17:58:56.053Z,98928.66
2023-03-29T18:01:24.748Z,98924.44
2023-03-29T18:03:53.422Z,98923.31
2023-03-29T18:06:22.168Z,98921.38
2023-03-29T18:08:53.193Z,98919.78
2023-03-29T18:11:24.569Z,98915.66
2023-03-29T18:13:54.185Z,98922.66
2023-03-29T18:16:23.366Z,98917.16
2023-03-29T18:18:52.271Z,98921.63
2023-03-29T18:21:21.076Z,98919.91
2023-03-29T18:23:52.864Z,98927.69
2023-03-29T18:26:24.168Z,98924.72
2023-03-29T18:28:53.273Z,98924.72
2023-03-29T18:31:22.998Z,98928.59
2023-03-29T18:33:51.739Z,98933.50
2023-03-29T18:36:20.481Z,98935.44
2023-03-29T18:38:49.181Z,98931.38
2023-03-29T18:41:17.810Z,98930.53
2023-03-29T18:43:47.787Z,98928.38
2023-03-29T18:46:16.598Z,98921.75
2023-03-29T18:48:45.344Z,98926.53
2023-03-29T18:51:14.923Z,98925.75
2023-03-29T18:53:44.323Z,98920.63
2023-03-29T18:56:12.925Z,98917.44
2023-03-29T18:58:41.550Z,98913.31
2023-03-29T19:01:12.731Z,98913.78
2023-03-29T19:03:41.804Z,98913.69
2023-03-29T19:06:11.747Z,98907.75
2023-03-29T19:08:41.512Z,98915.50
2023-03-29T19:11:14.233Z,98900.19
2023-03-29T19:13:45.444Z,98903.06
2023-03-29T19:16:15.456Z,98907.47
2023-03-29T19:18:44.081Z,98902.38
2023-03-29T19:21:13.068Z,98896.53
2023-03-29T19:23:41.700Z,98894.38
2023-03-29T19:26:10.625Z,98907.72
2023-03-29T19:28:39.257Z,98923.47
2023-03-29T19:31:09.024Z,98916.03
2023-03-29T19:33:40.823Z,98906.56
2023-03-29T19:36:09.703Z,98905.41
2023-03-29T19:38:38.392Z,98906.22
2023-03-29T19:41:08.799Z,98913.28
2023-03-29T19:43:37.409Z,98911.56
2023-03-29T19:46:07.055Z,98902.31
2023-03-29T19:48:35.825Z,98899.00
2023-03-29T19:51:06.706Z,98892.97
2023-03-29T19:53:38.506Z,98884.66
2023-03-29T19:56:10.661Z,98882.50
2023-03-29T19:58:39.424Z,98874.41
2023-03-29T20:01:08.378Z,98873.47
2023-03-29T20:03:37.118Z,98877.69
2023-03-29T20:06:08.078Z,98873.94
2023-03-29T20:08:38.850Z,98875.97
2023-03-29T20:11:10.181Z,98868.78
2023-03-29T20:13:39.790Z,98859.19
2023-03-29T20:16:10.031Z,98860.66
2023-03-29T20:18:44.703Z,98856.31
2023-03-29T20:21:16.397Z,98844.66
2023-03-29T20:23:45.661Z,98846.69
2023-03-29T20:26:15.335Z,98833.47
2023-03-29T20:28:44.116Z,98844.75
2023-03-29T20:31:13.054Z,98841.13
2023-03-29T20:33:44.333Z,98837.69
2023-03-29T20:36:18.617Z,98825.41
2023-03-29T20:38:47.425Z,98818.78
2023-03-29T20:41:16.616Z,98819.22
2023-03-29T20:43:46.205Z,98828.66
2023-03-29T20:46:22.342Z,98819.22
2023-03-29T20:48:54.041Z,98821.25
2023-03-29T20:51:28.055Z,98825.47
2023-03-29T20:54:02.197Z,98821.16
2023-03-29T20:56:31.448Z,98813.28
2023-03-29T20:59:00.275Z,98809.06
2023-03-29T21:01:30.994Z,98814.31
2023-03-29T21:03:59.722Z,98803.25
2023-03-29T21:06:30.160Z,98797.19
2023-03-29T21:08:58.860Z,98805.50
2023-03-29T21:11:27.647Z,98789.78
2023-03-29T21:13:56.273Z,98793.09
2023-03-29T21:16:25.589Z,98789.88
2023-03-29T21:18:54.406Z,98802.19
2023-03-29T21:21:23.604Z,98790.91
2023-03-29T21:23:53.579Z,98787.84
2023-03-29T21:26:22.730Z,98782.25
2023-03-29T21:28:51.452Z,98777.00
2023-03-29T21:31:20.478Z,98788.72
2023-03-29T21:33:49.217Z,98776.66
2023-03-29T21:36:17.873Z,98774.50
2023-03-29T21:38:46.744Z,98782.78
2023-03-29T21:41:17.291Z,98768.09
2023-03-29T21:43:45.979Z,98762.88
2023-03-29T21:46:14.927Z,98769.34
2023-03-29T21:48:43.677Z,98761.13
2023-03-29T21:51:12.324Z,98756.47
2023-03-29T21:53:41.013Z,98752.25
2023-03-29T21:56:11.823Z,98753.41
2023-03-29T21:58:41.784Z,98747.72
2023-03-29T22:01:10.995Z,98747.16
2023-03-29T22:03:39.725Z,98746.09
2023-03-29T22:06:09.691Z,98741.78
2023-03-29T22:08:40.391Z,98749.19
2023-03-29T22:11:10.811Z,98747.72
2023-03-29T22:13:41.101Z,98742.69
2023-03-29T22:16:13.522Z,98740.53
2023-03-29T22:18:46.823Z,98746.69
2023-03-29T22:21:18.319Z,98741.84
2023-03-29T22:23:48.091Z,98749.94
2023-03-29T22:26:18.036Z,98744.69
2023-03-29T22:28:48.177Z,98742.78
2023-03-29T22:31:19.712Z,98731.59
2023-03-29T22:33:49.235Z,98728.66
2023-03-29T22:36:19.474Z,98732.66
2023-03-29T22:38:48.720Z,98737.88
2023-03-29T22:41:18.073Z,98734.22
2023-03-29T22:43:48.108Z,98736.75
2023-03-29T22:46:17.010Z,98740.81
2023-03-29T22:48:46.097Z,98735.69
2023-03-29T22:51:15.029Z,98739.34
2023-03-29T22:53:43.752Z,98732.38
2023-03-29T22:56:13.224Z,98726.16
2023-03-29T22:58:41.914Z,98725.22
2023-03-29T23:01:12.035Z,98729.44
2023-03-29T23:03:40.714Z,98729.66
2023-03-29T23:06:09.340Z,98735.59
2023-03-29T23:08:37.953Z,98729.09
2023-03-29T23:11:07.381Z,98727.84
2023-03-29T23:13:36.286Z,98727.13
2023-03-29T23:16:05.442Z,98729.53
2023-03-29T23:18:37.402Z,98725.03
2023-03-29T23:21:08.836Z,98725.81
2023-03-29T23:23:38.188Z,98724.00
2023-03-29T23:26:08.332Z,98725.81
2023-03-29T23:28:37.266Z,98725.00
2023-03-29T23:31:09.588Z,98727.59
2023-03-29T23:33:42.545Z,98724.44
2023-03-29T23:36:13.302Z,98717.63
2023-03-29T23:38:42.660Z,98713.97
2023-03-29T23:41:12.740Z,98726.97
2023-03-29T23:43:42.696Z,98722.97
2023-03-29T23:46:13.332Z,98730.13
2023-03-29T23:48:47.103Z,98730.13
2023-03-29T23:51:18.138Z,98714.75
2023-03-29T23:53:47.339Z,98727.41
2023-03-29T23:56:16.222Z,98730.59
2023-03-29T23:58:45.537Z,98738.44
